sensor_id;sensor_type;location;lat;lon;timestamp;temperature;humidity
59282;DHT22;45054;52.062;10.010;2022-07-23T00:00:08;15.60;99.90
59282;DHT22;45054;52.062;10.010;2022-07-23T00:02:34;15.70;99.90
59282;DHT22;45054;52.062;10.010;2022-07-23T00:04:59;15.60;99.90
59282;DHT22;45054;52.062;10.010;2022-07-23T00:07:25;15.60;99.90
59282;DHT22;45054;52.062;10.010;2022-07-23T00:09:51;15.60;99.90
59282;DHT22;45054;52.062;10.010;2022-07-23T00:12:17;15.60;99.90
59282;DHT22;45054;52.062;10.010;2022-07-23T00:14:42;15.60;99.90
59282;DHT22;45054;52.062;10.010;2022-07-23T00:17:09;15.60;99.90
59282;DHT22;45054;52.062;10.010;2022-07-23T00:19:35;15.60;99.90
59282;DHT22;45054;52.062;10.010;2022-07-23T00:22:00;15.70;99.90
59282;DHT22;45054;52.062;10.010;2022-07-23T00:24:26;15.70;99.90
59282;DHT22;45054;52.062;10.010;2022-07-23T00:26:51;15.70;99.90
59282;DHT22;45054;52.062;10.010;2022-07-23T00:29:16;15.80;99.90
59282;DHT22;45054;52.062;10.010;2022-07-23T00:31:42;15.80;99.90
59282;DHT22;45054;52.062;10.010;2022-07-23T00:34:09;15.80;99.90
59282;DHT22;45054;52.062;10.010;2022-07-23T00:36:34;15.80;99.90
59282;DHT22;45054;52.062;10.010;2022-07-23T00:39:00;15.80;99.90
59282;DHT22;45054;52.062;10.010;2022-07-23T00:41:25;15.70;99.90
59282;DHT22;45054;52.062;10.010;2022-07-23T00:43:51;15.60;99.90
59282;DHT22;45054;52.062;10.010;2022-07-23T00:46:18;15.60;99.90
59282;DHT22;45054;52.062;10.010;2022-07-23T00:48:44;15.50;99.90
59282;DHT22;45054;52.062;10.010;2022-07-23T00:51:10;15.60;99.90
59282;DHT22;45054;52.062;10.010;2022-07-23T00:53:36;15.60;99.90
59282;DHT22;45054;52.062;10.010;2022-07-23T00:56:01;15.50;99.90
59282;DHT22;45054;52.062;10.010;2022-07-23T00:58:27;15.40;99.90
59282;DHT22;45054;52.062;10.010;2022-07-23T01:00:53;15.40;99.90
59282;DHT22;45054;52.062;10.010;2022-07-23T01:03:18;15.50;99.90
59282;DHT22;45054;52.062;10.010;2022-07-23T01:05:44;15.60;99.90
59282;DHT22;45054;52.062;10.010;2022-07-23T01:08:11;15.50;99.90
59282;DHT22;45054;52.062;10.010;2022-07-23T01:10:37;15.60;99.90
59282;DHT22;45054;52.062;10.010;2022-07-23T01:13:04;15.60;99.90
59282;DHT22;45054;52.062;10.010;2022-07-23T01:15:30;15.60;99.90
59282;DHT22;45054;52.062;10.010;2022-07-23T01:17:55;15.60;99.90
59282;DHT22;45054;52.062;10.010;2022-07-23T01:20:21;15.60;99.90
59282;DHT22;45054;52.062;10.010;2022-07-23T01:22:48;15.60;99.90
59282;DHT22;45054;52.062;10.010;2022-07-23T01:25:13;15.60;99.90
59282;DHT22;45054;52.062;10.010;2022-07-23T01:27:39;15.60;99.90
59282;DHT22;45054;52.062;10.010;2022-07-23T01:30:05;15.60;99.90
59282;DHT22;45054;52.062;10.010;2022-07-23T01:32:30;15.50;99.90
59282;DHT22;45054;52.062;10.010;2022-07-23T01:34:56;15.50;99.90
59282;DHT22;45054;52.062;10.010;2022-07-23T01:37:21;15.50;99.90
59282;DHT22;45054;52.062;10.010;2022-07-23T01:39:48;15.50;99.90
59282;DHT22;45054;52.062;10.010;2022-07-23T01:42:14;15.50;99.90
59282;DHT22;45054;52.062;10.010;2022-07-23T01:44:39;15.40;99.90
59282;DHT22;45054;52.062;10.010;2022-07-23T01:47:05;15.50;99.90
59282;DHT22;45054;52.062;10.010;2022-07-23T01:49:30;15.50;99.90
59282;DHT22;45054;52.062;10.010;2022-07-23T01:51:55;15.50;99.90
59282;DHT22;45054;52.062;10.010;2022-07-23T01:54:21;15.40;99.90
59282;DHT22;45054;52.062;10.010;2022-07-23T01:56:48;15.50;99.90
59282;DHT22;45054;52.062;10.010;2022-07-23T01:59:13;15.50;99.90
59282;DHT22;45054;52.062;10.010;2022-07-23T02:01:39;15.60;99.90
59282;DHT22;45054;52.062;10.010;2022-07-23T02:04:04;15.60;99.90
59282;DHT22;45054;52.062;10.010;2022-07-23T02:06:29;15.60;99.90
59282;DHT22;45054;52.062;10.010;2022-07-23T02:08:55;15.60;99.90
59282;DHT22;45054;52.062;10.010;2022-07-23T02:11:20;15.60;99.90
59282;DHT22;45054;52.062;10.010;2022-07-23T02:13:47;15.60;99.90
59282;DHT22;45054;52.062;10.010;2022-07-23T02:16:13;15.60;99.90
59282;DHT22;45054;52.062;10.010;2022-07-23T02:18:38;15.50;99.90
59282;DHT22;45054;52.062;10.010;2022-07-23T02:21:03;15.50;99.90
59282;DHT22;45054;52.062;10.010;2022-07-23T02:23:29;15.50;99.90
59282;DHT22;45054;52.062;10.010;2022-07-23T02:25:54;15.50;99.90
59282;DHT22;45054;52.062;10.010;2022-07-23T02:28:20;15.50;99.90
59282;DHT22;45054;52.062;10.010;2022-07-23T02:30:47;15.60;99.90
59282;DHT22;45054;52.062;10.010;2022-07-23T02:33:12;15.60;99.90
59282;DHT22;45054;52.062;10.010;2022-07-23T02:35:37;15.60;99.90
59282;DHT22;45054;52.062;10.010;2022-07-23T02:38:03;15.70;99.90
59282;DHT22;45054;52.062;10.010;2022-07-23T02:40:28;15.60;99.90
59282;DHT22;45054;52.062;10.010;2022-07-23T02:42:54;15.60;99.90
59282;DHT22;45054;52.062;10.010;2022-07-23T02:45:19;15.60;99.90
59282;DHT22;45054;52.062;10.010;2022-07-23T02:47:46;15.60;99.90
59282;DHT22;45054;52.062;10.010;2022-07-23T02:50:13;15.50;99.90
59282;DHT22;45054;52.062;10.010;2022-07-23T02:52:39;15.50;99.90
59282;DHT22;45054;52.062;10.010;2022-07-23T02:55:05;15.50;99.90
59282;DHT22;45054;52.062;10.010;2022-07-23T02:57:30;15.50;99.90
59282;DHT22;45054;52.062;10.010;2022-07-23T02:59:56;15.60;99.90
59282;DHT22;45054;52.062;10.010;2022-07-23T03:02:21;15.60;99.90
59282;DHT22;45054;52.062;10.010;2022-07-23T03:04:48;15.60;99.90
59282;DHT22;45054;52.062;10.010;2022-07-23T03:07:13;15.60;99.90
59282;DHT22;45054;52.062;10.010;2022-07-23T03:09:39;15.70;99.90
59282;DHT22;45054;52.062;10.010;2022-07-23T03:12:04;15.70;99.90
59282;DHT22;45054;52.062;10.010;2022-07-23T03:14:30;15.70;99.90
59282;DHT22;45054;52.062;10.010;2022-07-23T03:16:55;15.70;99.90
59282;DHT22;45054;52.062;10.010;2022-07-23T03:19:21;15.70;99.90
59282;DHT22;45054;52.062;10.010;2022-07-23T03:21:47;15.70;99.90
59282;DHT22;45054;52.062;10.010;2022-07-23T03:24:13;15.70;99.90
59282;DHT22;45054;52.062;10.010;2022-07-23T03:26:38;15.80;99.90
59282;DHT22;45054;52.062;10.010;2022-07-23T03:29:04;15.80;99.90
59282;DHT22;45054;52.062;10.010;2022-07-23T03:31:29;15.80;99.90
59282;DHT22;45054;52.062;10.010;2022-07-23T03:33:55;15.90;99.90
59282;DHT22;45054;52.062;10.010;2022-07-23T03:36:20;15.90;99.90
59282;DHT22;45054;52.062;10.010;2022-07-23T03:38:47;15.90;99.90
59282;DHT22;45054;52.062;10.010;2022-07-23T03:41:12;15.90;99.90
59282;DHT22;45054;52.062;10.010;2022-07-23T03:43:38;15.80;99.90
59282;DHT22;45054;52.062;10.010;2022-07-23T03:46:03;15.70;99.90
59282;DHT22;45054;52.062;10.010;2022-07-23T03:48:29;15.70;99.90
59282;DHT22;45054;52.062;10.010;2022-07-23T03:50:54;15.70;99.90
59282;DHT22;45054;52.062;10.010;2022-07-23T03:53:20;15.70;99.90
59282;DHT22;45054;52.062;10.010;2022-07-23T03:55:46;15.70;99.90
59282;DHT22;45054;52.062;10.010;2022-07-23T03:58:12;15.70;99.90
59282;DHT22;45054;52.062;10.010;2022-07-23T04:00:37;15.50;99.90
59282;DHT22;45054;52.062;10.010;2022-07-23T04:03:03;15.40;99.90
59282;DHT22;45054;52.062;10.010;2022-07-23T04:05:28;15.50;99.90
59282;DHT22;45054;52.062;10.010;2022-07-23T04:07:54;15.40;99.90
59282;DHT22;45054;52.062;10.010;2022-07-23T04:10:19;15.40;99.90
59282;DHT22;45054;52.062;10.010;2022-07-23T04:12:46;15.40;99.90
59282;DHT22;45054;52.062;10.010;2022-07-23T04:15:11;15.50;99.90
59282;DHT22;45054;52.062;10.010;2022-07-23T04:17:37;15.50;99.90
59282;DHT22;45054;52.062;10.010;2022-07-23T04:20:02;15.50;99.90
59282;DHT22;45054;52.062;10.010;2022-07-23T04:22:28;15.60;99.90
59282;DHT22;45054;52.062;10.010;2022-07-23T04:24:53;15.60;99.90
59282;DHT22;45054;52.062;10.010;2022-07-23T04:27:19;15.60;99.90
59282;DHT22;45054;52.062;10.010;2022-07-23T04:29:46;15.60;99.90
59282;DHT22;45054;52.062;10.010;2022-07-23T04:32:11;15.50;99.90
59282;DHT22;45054;52.062;10.010;2022-07-23T04:34:37;15.50;99.90
59282;DHT22;45054;52.062;10.010;2022-07-23T04:37:02;15.60;99.90
59282;DHT22;45054;52.062;10.010;2022-07-23T04:39:27;15.60;99.90
59282;DHT22;45054;52.062;10.010;2022-07-23T04:41:53;15.70;99.90
59282;DHT22;45054;52.062;10.010;2022-07-23T04:44:18;15.70;99.90
59282;DHT22;45054;52.062;10.010;2022-07-23T04:46:45;15.70;99.90
59282;DHT22;45054;52.062;10.010;2022-07-23T04:49:11;15.70;99.90
59282;DHT22;45054;52.062;10.010;2022-07-23T04:51:36;15.70;99.90
59282;DHT22;45054;52.062;10.010;2022-07-23T04:54:01;15.70;99.90
59282;DHT22;45054;52.062;10.010;2022-07-23T04:56:27;15.70;99.90
59282;DHT22;45054;52.062;10.010;2022-07-23T04:58:52;15.70;99.90
59282;DHT22;45054;52.062;10.010;2022-07-23T05:01:18;15.70;99.90
59282;DHT22;45054;52.062;10.010;2022-07-23T05:03:45;15.70;99.90
59282;DHT22;45054;52.062;10.010;2022-07-23T05:06:10;15.80;99.90
59282;DHT22;45054;52.062;10.010;2022-07-23T05:08:35;15.80;99.90
59282;DHT22;45054;52.062;10.010;2022-07-23T05:11:01;15.80;99.90
59282;DHT22;45054;52.062;10.010;2022-07-23T05:13:26;15.80;99.90
59282;DHT22;45054;52.062;10.010;2022-07-23T05:15:52;15.80;99.90
59282;DHT22;45054;52.062;10.010;2022-07-23T05:18:17;15.80;99.90
59282;DHT22;45054;52.062;10.010;2022-07-23T05:20:44;15.80;99.90
59282;DHT22;45054;52.062;10.010;2022-07-23T05:23:09;15.80;99.90
59282;DHT22;45054;52.062;10.010;2022-07-23T05:25:35;15.80;99.90
59282;DHT22;45054;52.062;10.010;2022-07-23T05:28:00;15.80;99.90
59282;DHT22;45054;52.062;10.010;2022-07-23T05:30:26;15.90;99.90
59282;DHT22;45054;52.062;10.010;2022-07-23T05:32:51;16.00;99.90
59282;DHT22;45054;52.062;10.010;2022-07-23T05:35:17;16.10;99.90
59282;DHT22;45054;52.062;10.010;2022-07-23T05:37:44;16.10;99.90
59282;DHT22;45054;52.062;10.010;2022-07-23T05:40:09;16.20;99.90
59282;DHT22;45054;52.062;10.010;2022-07-23T05:42:35;16.30;99.90
59282;DHT22;45054;52.062;10.010;2022-07-23T05:45:00;16.30;99.90
59282;DHT22;45054;52.062;10.010;2022-07-23T05:47:26;16.50;99.90
59282;DHT22;45054;52.062;10.010;2022-07-23T05:49:51;16.50;99.90
59282;DHT22;45054;52.062;10.010;2022-07-23T05:52:17;16.50;99.90
59282;DHT22;45054;52.062;10.010;2022-07-23T05:54:44;16.40;99.90
59282;DHT22;45054;52.062;10.010;2022-07-23T05:57:09;16.40;99.90
59282;DHT22;45054;52.062;10.010;2022-07-23T05:59:35;16.40;99.90
59282;DHT22;45054;52.062;10.010;2022-07-23T06:02:00;16.40;99.90
59282;DHT22;45054;52.062;10.010;2022-07-23T06:04:26;16.40;99.90
59282;DHT22;45054;52.062;10.010;2022-07-23T06:06:51;16.40;99.90
59282;DHT22;45054;52.062;10.010;2022-07-23T06:09:16;16.40;99.90
59282;DHT22;45054;52.062;10.010;2022-07-23T06:11:43;16.40;99.90
59282;DHT22;45054;52.062;10.010;2022-07-23T06:14:09;16.40;99.90
59282;DHT22;45054;52.062;10.010;2022-07-23T06:16:34;16.40;99.90
59282;DHT22;45054;52.062;10.010;2022-07-23T06:19:00;16.40;99.90
59282;DHT22;45054;52.062;10.010;2022-07-23T06:21:25;16.40;99.90
59282;DHT22;45054;52.062;10.010;2022-07-23T06:23:51;16.50;99.90
59282;DHT22;45054;52.062;10.010;2022-07-23T06:26:16;16.50;99.90
59282;DHT22;45054;52.062;10.010;2022-07-23T06:28:43;16.50;99.90
59282;DHT22;45054;52.062;10.010;2022-07-23T06:31:08;16.60;99.90
59282;DHT22;45054;52.062;10.010;2022-07-23T06:33:34;16.60;99.90
59282;DHT22;45054;52.062;10.010;2022-07-23T06:35:59;16.70;99.90
59282;DHT22;45054;52.062;10.010;2022-07-23T06:38:25;16.70;99.90
59282;DHT22;45054;52.062;10.010;2022-07-23T06:40:50;16.70;99.90
59282;DHT22;45054;52.062;10.010;2022-07-23T06:43:16;16.80;99.90
59282;DHT22;45054;52.062;10.010;2022-07-23T06:45:43;16.90;99.90
59282;DHT22;45054;52.062;10.010;2022-07-23T06:48:08;16.90;99.90
59282;DHT22;45054;52.062;10.010;2022-07-23T06:50:34;16.90;99.90
59282;DHT22;45054;52.062;10.010;2022-07-23T06:52:59;16.90;99.90
59282;DHT22;45054;52.062;10.010;2022-07-23T06:55:25;17.00;99.90
59282;DHT22;45054;52.062;10.010;2022-07-23T06:57:50;17.10;99.90
59282;DHT22;45054;52.062;10.010;2022-07-23T07:00:16;17.10;99.90
59282;DHT22;45054;52.062;10.010;2022-07-23T07:02:42;17.10;99.90
59282;DHT22;45054;52.062;10.010;2022-07-23T07:05:08;17.20;99.90
59282;DHT22;45054;52.062;10.010;2022-07-23T07:07:33;17.20;99.90
59282;DHT22;45054;52.062;10.010;2022-07-23T07:09:59;17.30;99.90
59282;DHT22;45054;52.062;10.010;2022-07-23T07:12:24;17.30;99.90
59282;DHT22;45054;52.062;10.010;2022-07-23T07:14:50;17.40;99.90
59282;DHT22;45054;52.062;10.010;2022-07-23T07:17:15;17.40;99.90
59282;DHT22;45054;52.062;10.010;2022-07-23T07:19:42;17.50;99.90
59282;DHT22;45054;52.062;10.010;2022-07-23T07:22:07;17.60;99.90
59282;DHT22;45054;52.062;10.010;2022-07-23T07:24:33;17.70;99.90
59282;DHT22;45054;52.062;10.010;2022-07-23T07:26:58;17.80;99.90
59282;DHT22;45054;52.062;10.010;2022-07-23T07:29:24;17.90;99.90
59282;DHT22;45054;52.062;10.010;2022-07-23T07:31:49;18.00;99.90
59282;DHT22;45054;52.062;10.010;2022-07-23T07:34:15;18.10;99.90
59282;DHT22;45054;52.062;10.010;2022-07-23T07:36:42;18.10;99.90
59282;DHT22;45054;52.062;10.010;2022-07-23T07:39:07;18.00;99.90
59282;DHT22;45054;52.062;10.010;2022-07-23T07:41:32;18.00;99.90
59282;DHT22;45054;52.062;10.010;2022-07-23T07:43:58;17.90;99.90
59282;DHT22;45054;52.062;10.010;2022-07-23T07:46:23;17.80;99.90
59282;DHT22;45054;52.062;10.010;2022-07-23T07:48:49;17.70;99.90
59282;DHT22;45054;52.062;10.010;2022-07-23T07:51:14;17.70;99.90
59282;DHT22;45054;52.062;10.010;2022-07-23T07:53:42;17.60;99.90
59282;DHT22;45054;52.062;10.010;2022-07-23T07:56:08;17.70;99.90
59282;DHT22;45054;52.062;10.010;2022-07-23T07:58:33;17.80;99.90
59282;DHT22;45054;52.062;10.010;2022-07-23T08:00:59;17.80;99.90
59282;DHT22;45054;52.062;10.010;2022-07-23T08:03:24;18.00;99.90
59282;DHT22;45054;52.062;10.010;2022-07-23T08:05:50;18.00;99.90
59282;DHT22;45054;52.062;10.010;2022-07-23T08:08:15;18.10;99.90
59282;DHT22;45054;52.062;10.010;2022-07-23T08:10:42;18.10;99.90
59282;DHT22;45054;52.062;10.010;2022-07-23T08:13:08;18.10;99.90
59282;DHT22;45054;52.062;10.010;2022-07-23T08:15:37;18.30;99.90
59282;DHT22;45054;52.062;10.010;2022-07-23T08:18:02;18.30;99.90
59282;DHT22;45054;52.062;10.010;2022-07-23T08:20:28;18.30;99.90
59282;DHT22;45054;52.062;10.010;2022-07-23T08:22:54;18.40;99.90
59282;DHT22;45054;52.062;10.010;2022-07-23T08:25:20;18.50;99.90
59282;DHT22;45054;52.062;10.010;2022-07-23T08:27:47;18.50;99.90
59282;DHT22;45054;52.062;10.010;2022-07-23T08:30:13;18.60;99.90
59282;DHT22;45054;52.062;10.010;2022-07-23T08:32:51;18.60;99.90
59282;DHT22;45054;52.062;10.010;2022-07-23T08:35:17;18.70;99.90
59282;DHT22;45054;52.062;10.010;2022-07-23T08:37:42;18.80;99.90
59282;DHT22;45054;52.062;10.010;2022-07-23T08:40:08;19.00;99.90
59282;DHT22;45054;52.062;10.010;2022-07-23T08:42:34;19.10;99.90
59282;DHT22;45054;52.062;10.010;2022-07-23T08:45:02;19.20;99.90
59282;DHT22;45054;52.062;10.010;2022-07-23T08:47:28;19.00;99.90
59282;DHT22;45054;52.062;10.010;2022-07-23T08:49:54;18.90;99.90
59282;DHT22;45054;52.062;10.010;2022-07-23T08:52:20;19.10;99.90
59282;DHT22;45054;52.062;10.010;2022-07-23T08:54:45;19.20;99.90
59282;DHT22;45054;52.062;10.010;2022-07-23T08:57:11;19.30;99.90
59282;DHT22;45054;52.062;10.010;2022-07-23T08:59:37;19.30;99.90
59282;DHT22;45054;52.062;10.010;2022-07-23T09:02:03;19.30;99.90
59282;DHT22;45054;52.062;10.010;2022-07-23T09:04:29;19.40;99.90
59282;DHT22;45054;52.062;10.010;2022-07-23T09:06:55;19.30;99.90
59282;DHT22;45054;52.062;10.010;2022-07-23T09:09:21;19.50;99.90
59282;DHT22;45054;52.062;10.010;2022-07-23T09:11:47;19.60;99.90
59282;DHT22;45054;52.062;10.010;2022-07-23T09:14:12;19.60;99.90
59282;DHT22;45054;52.062;10.010;2022-07-23T09:16:38;19.50;99.90
59282;DHT22;45054;52.062;10.010;2022-07-23T09:19:06;19.50;99.90
59282;DHT22;45054;52.062;10.010;2022-07-23T09:21:32;19.50;99.90
59282;DHT22;45054;52.062;10.010;2022-07-23T09:23:58;19.50;99.90
59282;DHT22;45054;52.062;10.010;2022-07-23T09:26:25;19.40;99.90
59282;DHT22;45054;52.062;10.010;2022-07-23T09:28:52;19.30;99.90
59282;DHT22;45054;52.062;10.010;2022-07-23T09:31:17;19.40;99.90
59282;DHT22;45054;52.062;10.010;2022-07-23T09:33:43;19.50;99.90
59282;DHT22;45054;52.062;10.010;2022-07-23T09:36:10;19.80;99.90
59282;DHT22;45054;52.062;10.010;2022-07-23T09:38:36;20.10;99.90
59282;DHT22;45054;52.062;10.010;2022-07-23T09:41:12;20.20;99.90
59282;DHT22;45054;52.062;10.010;2022-07-23T09:43:38;20.40;99.90
59282;DHT22;45054;52.062;10.010;2022-07-23T09:46:16;20.40;99.90
59282;DHT22;45054;52.062;10.010;2022-07-23T09:48:42;20.20;99.90
59282;DHT22;45054;52.062;10.010;2022-07-23T09:51:07;20.10;99.90
59282;DHT22;45054;52.062;10.010;2022-07-23T09:53:34;20.10;99.90
59282;DHT22;45054;52.062;10.010;2022-07-23T09:55:59;20.10;99.90
59282;DHT22;45054;52.062;10.010;2022-07-23T09:58:25;20.20;99.90
59282;DHT22;45054;52.062;10.010;2022-07-23T10:00:51;20.40;99.90
59282;DHT22;45054;52.062;10.010;2022-07-23T10:03:17;20.50;99.90
59282;DHT22;45054;52.062;10.010;2022-07-23T10:05:42;20.70;99.90
59282;DHT22;45054;52.062;10.010;2022-07-23T10:08:10;20.70;99.90
59282;DHT22;45054;52.062;10.010;2022-07-23T10:10:37;20.50;99.90
59282;DHT22;45054;52.062;10.010;2022-07-23T10:13:04;20.30;99.90
59282;DHT22;45054;52.062;10.010;2022-07-23T10:15:29;20.40;99.90
59282;DHT22;45054;52.062;10.010;2022-07-23T10:17:55;20.40;99.90
59282;DHT22;45054;52.062;10.010;2022-07-23T10:20:20;20.30;99.90
59282;DHT22;45054;52.062;10.010;2022-07-23T10:22:47;20.30;99.90
59282;DHT22;45054;52.062;10.010;2022-07-23T10:25:22;20.30;99.90
59282;DHT22;45054;52.062;10.010;2022-07-23T10:27:57;20.40;99.90
59282;DHT22;45054;52.062;10.010;2022-07-23T10:30:26;20.60;99.90
59282;DHT22;45054;52.062;10.010;2022-07-23T10:32:56;20.80;99.90
59282;DHT22;45054;52.062;10.010;2022-07-23T10:35:28;20.90;99.90
59282;DHT22;45054;52.062;10.010;2022-07-23T10:37:55;20.90;99.90
59282;DHT22;45054;52.062;10.010;2022-07-23T10:40:22;20.90;99.90
59282;DHT22;45054;52.062;10.010;2022-07-23T10:42:51;21.20;99.90
59282;DHT22;45054;52.062;10.010;2022-07-23T10:45:25;21.30;99.90
59282;DHT22;45054;52.062;10.010;2022-07-23T10:47:51;21.50;99.90
59282;DHT22;45054;52.062;10.010;2022-07-23T10:50:17;21.50;99.90
59282;DHT22;45054;52.062;10.010;2022-07-23T10:52:42;21.60;99.90
59282;DHT22;45054;52.062;10.010;2022-07-23T10:55:46;21.60;99.90
59282;DHT22;45054;52.062;10.010;2022-07-23T10:58:17;21.50;99.90
59282;DHT22;45054;52.062;10.010;2022-07-23T11:00:42;21.20;99.90
59282;DHT22;45054;52.062;10.010;2022-07-23T11:05:48;21.20;99.90
59282;DHT22;45054;52.062;10.010;2022-07-23T11:08:14;21.20;99.90
59282;DHT22;45054;52.062;10.010;2022-07-23T11:10:41;21.20;99.90
59282;DHT22;45054;52.062;10.010;2022-07-23T11:13:26;21.20;99.90
59282;DHT22;45054;52.062;10.010;2022-07-23T11:16:03;21.20;99.90
59282;DHT22;45054;52.062;10.010;2022-07-23T11:23:57;21.70;99.90
59282;DHT22;45054;52.062;10.010;2022-07-23T11:31:52;22.20;99.90
59282;DHT22;45054;52.062;10.010;2022-07-23T11:34:28;22.20;99.90
59282;DHT22;45054;52.062;10.010;2022-07-23T11:36:53;22.20;99.90
59282;DHT22;45054;52.062;10.010;2022-07-23T11:39:19;22.20;99.90
59282;DHT22;45054;52.062;10.010;2022-07-23T11:41:45;22.10;99.90
59282;DHT22;45054;52.062;10.010;2022-07-23T11:44:23;22.00;99.90
59282;DHT22;45054;52.062;10.010;2022-07-23T11:46:55;21.80;99.90
59282;DHT22;45054;52.062;10.010;2022-07-23T11:49:20;21.60;99.90
59282;DHT22;45054;52.062;10.010;2022-07-23T11:51:46;21.80;99.90
59282;DHT22;45054;52.062;10.010;2022-07-23T11:54:11;22.00;99.90
59282;DHT22;45054;52.062;10.010;2022-07-23T11:56:36;22.00;99.90
59282;DHT22;45054;52.062;10.010;2022-07-23T11:59:02;22.10;99.90
59282;DHT22;45054;52.062;10.010;2022-07-23T12:01:27;22.20;99.90
59282;DHT22;45054;52.062;10.010;2022-07-23T12:03:54;22.20;99.90
59282;DHT22;45054;52.062;10.010;2022-07-23T12:06:20;22.40;99.90
59282;DHT22;45054;52.062;10.010;2022-07-23T12:08:45;22.40;99.90
59282;DHT22;45054;52.062;10.010;2022-07-23T12:11:11;22.40;99.90
59282;DHT22;45054;52.062;10.010;2022-07-23T12:13:37;22.40;99.90
59282;DHT22;45054;52.062;10.010;2022-07-23T12:16:02;22.50;99.90
59282;DHT22;45054;52.062;10.010;2022-07-23T12:18:28;22.50;99.90
59282;DHT22;45054;52.062;10.010;2022-07-23T12:20:55;22.70;99.90
59282;DHT22;45054;52.062;10.010;2022-07-23T12:23:22;22.80;99.90
59282;DHT22;45054;52.062;10.010;2022-07-23T12:25:49;22.70;99.90
59282;DHT22;45054;52.062;10.010;2022-07-23T12:28:15;22.70;99.90
59282;DHT22;45054;52.062;10.010;2022-07-23T12:30:42;22.60;99.90
59282;DHT22;45054;52.062;10.010;2022-07-23T12:33:09;22.60;99.90
59282;DHT22;45054;52.062;10.010;2022-07-23T12:35:35;22.70;99.90
59282;DHT22;45054;52.062;10.010;2022-07-23T12:38:03;22.90;99.90
59282;DHT22;45054;52.062;10.010;2022-07-23T12:40:29;23.00;99.90
59282;DHT22;45054;52.062;10.010;2022-07-23T12:42:56;23.00;99.90
59282;DHT22;45054;52.062;10.010;2022-07-23T12:45:22;23.00;99.90
59282;DHT22;45054;52.062;10.010;2022-07-23T12:47:55;22.80;99.90
59282;DHT22;45054;52.062;10.010;2022-07-23T12:50:30;22.90;99.90
59282;DHT22;45054;52.062;10.010;2022-07-23T12:53:02;22.80;99.90
59282;DHT22;45054;52.062;10.010;2022-07-23T12:55:28;23.00;99.90
59282;DHT22;45054;52.062;10.010;2022-07-23T12:57:53;23.00;99.90
59282;DHT22;45054;52.062;10.010;2022-07-23T13:00:27;23.20;99.90
59282;DHT22;45054;52.062;10.010;2022-07-23T13:02:53;23.50;99.90
59282;DHT22;45054;52.062;10.010;2022-07-23T13:05:18;23.70;99.90
59282;DHT22;45054;52.062;10.010;2022-07-23T13:07:43;23.90;99.90
59282;DHT22;45054;52.062;10.010;2022-07-23T13:10:10;24.20;99.90
59282;DHT22;45054;52.062;10.010;2022-07-23T13:12:36;24.20;99.90
59282;DHT22;45054;52.062;10.010;2022-07-23T13:15:01;24.00;99.90
59282;DHT22;45054;52.062;10.010;2022-07-23T13:17:26;24.10;99.90
59282;DHT22;45054;52.062;10.010;2022-07-23T13:19:52;24.00;99.90
59282;DHT22;45054;52.062;10.010;2022-07-23T13:22:17;23.70;99.90
59282;DHT22;45054;52.062;10.010;2022-07-23T13:24:43;23.60;99.90
59282;DHT22;45054;52.062;10.010;2022-07-23T13:27:10;23.70;99.90
59282;DHT22;45054;52.062;10.010;2022-07-23T13:29:35;23.70;99.90
59282;DHT22;45054;52.062;10.010;2022-07-23T13:32:00;23.90;99.90
59282;DHT22;45054;52.062;10.010;2022-07-23T13:34:26;24.00;99.90
59282;DHT22;45054;52.062;10.010;2022-07-23T13:36:51;23.90;99.90
59282;DHT22;45054;52.062;10.010;2022-07-23T13:39:17;23.70;99.90
59282;DHT22;45054;52.062;10.010;2022-07-23T13:41:42;23.80;99.90
59282;DHT22;45054;52.062;10.010;2022-07-23T13:44:09;24.00;99.90
59282;DHT22;45054;52.062;10.010;2022-07-23T13:46:34;24.30;99.90
59282;DHT22;45054;52.062;10.010;2022-07-23T13:49:00;24.60;99.90
59282;DHT22;45054;52.062;10.010;2022-07-23T13:51:25;24.60;99.90
59282;DHT22;45054;52.062;10.010;2022-07-23T13:53:51;24.50;99.90
59282;DHT22;45054;52.062;10.010;2022-07-23T13:56:16;24.50;99.90
59282;DHT22;45054;52.062;10.010;2022-07-23T13:58:42;24.70;99.90
59282;DHT22;45054;52.062;10.010;2022-07-23T14:01:09;24.70;99.90
59282;DHT22;45054;52.062;10.010;2022-07-23T14:03:34;25.00;99.90
59282;DHT22;45054;52.062;10.010;2022-07-23T14:05:59;25.00;99.90
59282;DHT22;45054;52.062;10.010;2022-07-23T14:08:25;25.00;99.90
59282;DHT22;45054;52.062;10.010;2022-07-23T14:10:50;25.10;99.90
59282;DHT22;45054;52.062;10.010;2022-07-23T14:13:16;25.40;99.90
59282;DHT22;45054;52.062;10.010;2022-07-23T14:15:41;25.90;99.90
59282;DHT22;45054;52.062;10.010;2022-07-23T14:18:08;26.10;99.90
59282;DHT22;45054;52.062;10.010;2022-07-23T14:20:34;26.40;99.90
59282;DHT22;45054;52.062;10.010;2022-07-23T14:22:59;26.20;99.90
59282;DHT22;45054;52.062;10.010;2022-07-23T14:25:25;26.20;99.90
59282;DHT22;45054;52.062;10.010;2022-07-23T14:27:50;25.80;99.90
59282;DHT22;45054;52.062;10.010;2022-07-23T14:30:15;26.00;99.90
59282;DHT22;45054;52.062;10.010;2022-07-23T14:32:41;25.80;99.90
59282;DHT22;45054;52.062;10.010;2022-07-23T14:35:08;25.40;99.90
59282;DHT22;45054;52.062;10.010;2022-07-23T14:37:34;25.20;99.90
59282;DHT22;45054;52.062;10.010;2022-07-23T14:39:59;25.30;99.90
59282;DHT22;45054;52.062;10.010;2022-07-23T14:42:25;25.50;99.90
59282;DHT22;45054;52.062;10.010;2022-07-23T14:44:50;25.10;99.90
59282;DHT22;45054;52.062;10.010;2022-07-23T14:47:16;25.00;99.90
59282;DHT22;45054;52.062;10.010;2022-07-23T14:49:41;25.10;99.90
59282;DHT22;45054;52.062;10.010;2022-07-23T14:52:08;25.30;99.90
59282;DHT22;45054;52.062;10.010;2022-07-23T14:54:34;25.60;99.90
59282;DHT22;45054;52.062;10.010;2022-07-23T14:56:59;26.00;99.90
59282;DHT22;45054;52.062;10.010;2022-07-23T14:59:25;26.20;99.90
59282;DHT22;45054;52.062;10.010;2022-07-23T15:01:51;26.40;99.90
59282;DHT22;45054;52.062;10.010;2022-07-23T15:04:17;26.30;99.90
59282;DHT22;45054;52.062;10.010;2022-07-23T15:06:42;26.50;99.90
59282;DHT22;45054;52.062;10.010;2022-07-23T15:09:09;26.60;99.90
59282;DHT22;45054;52.062;10.010;2022-07-23T15:11:34;26.70;99.90
59282;DHT22;45054;52.062;10.010;2022-07-23T15:14:00;26.80;99.30
59282;DHT22;45054;52.062;10.010;2022-07-23T15:16:26;26.30;99.90
59282;DHT22;45054;52.062;10.010;2022-07-23T15:18:51;26.30;99.40
59282;DHT22;45054;52.062;10.010;2022-07-23T15:21:17;26.50;99.50